Weather at Brussels South Charleroi Airport

Public forecast

Using degrees Celsius for public forecast. Weather courtesy of forecast.io.

Current aviation weather report (METAR) for Brussels South Charleroi Airport

Report is more than 6 hours old.

Retrieved 2022/09/17 18:50 UTC (19 days ago):

EBCI 171850Z 26006KT 230V290 8000 -SHRA FEW004 SCT030 BKN041 10/09 Q1019 TEMPO 4000 SHRA

Aviation forecast (TAF) for Brussels South Charleroi Airport

Forecast is more than 12 hours old.

Retrieved 2022/09/17 18:29 UTC (19 days ago):

TAF EBCI 171708Z 1718/1824 28008KT 9999 FEW020TCU SCT035 PROB40 TEMPO 1718/1806 4000 SHRA PROB30 TEMPO 1805/1807 BKN005 PROB40 TEMPO 1813/1820 4000 SHRA